Fox Challenger — LEJJ — position and weather

sailwx.info

Track history (hours):
 
Tides and Currents Weather Stations Pressure Air Temp Water Temp Dewpoint Dewpoint Depression Visibility Wind Speed Wind Dir Waves Ship Positions

Fox Challenger

Last reported at 2017-Nov-16 09:05 UTC. Time now 2017-Dec-18 11:06 UTC.
Position N 70°02' E 020°59'.
Warning: this ship's position is 32 days out of date.

Length 30 m; draft 3.1 m.

Type: Towing. MMSI: 257785500.

Date/timePositionNaut miles runAvg speedWind from/ knotsBaromVisibWave heightAir tempDewpointWater temp
2017-Nov-16 09:05N 70°02' E 020°59'0 0.0
2017-Nov-16 08:59N 70°02' E 020°59'0 0.0
2017-Nov-16 08:30N 70°02' E 020°59'0 0.0
2017-Nov-16 07:59N 70°02' E 020°59'0 0.0
2017-Nov-16 07:29N 70°02' E 020°59'0 0.0
2017-Nov-16 07:00N 70°02' E 020°59'0 0.0
2017-Nov-16 06:30N 70°02' E 020°59'0 0.0
2017-Nov-16 05:59N 70°02' E 020°59'0 0.0
2017-Nov-16 05:30N 70°02' E 020°59'0 0.0
2017-Nov-16 05:00N 70°02' E 020°59'0 0.0
2017-Nov-16 04:29N 70°02' E 020°59'0 0.0
2017-Nov-16 03:59N 70°02' E 020°59'0 0.0
2017-Nov-16 03:30N 70°02' E 020°59'0 0.0
2017-Nov-16 03:00N 70°02' E 020°59'0 0.0
2017-Nov-16 02:29N 70°02' E 020°59'0 0.0
2017-Nov-16 02:00N 70°02' E 020°59'0 0.0
2017-Nov-16 01:30N 70°02' E 020°59'0 0.0
2017-Nov-16 00:59N 70°02' E 020°59'0 0.0
2017-Nov-16 00:30N 70°02' E 020°59'0 0.0
2017-Nov-16 00:00N 70°02' E 020°59'0 0.0
2017-Nov-15 23:30N 70°02' E 020°59'0 0.0
2017-Nov-15 22:59N 70°02' E 020°59'0 0.0
2017-Nov-15 22:30N 70°02' E 020°59'0 0.0
2017-Nov-15 21:59N 70°02' E 020°59'0 0.0
2017-Nov-15 21:29N 70°02' E 020°59'0 0.0
2017-Nov-15 21:00N 70°02' E 020°59'0 0.0
2017-Nov-15 20:29N 70°02' E 020°59'1 2.8
2017-Nov-15 20:00N 70°03' E 021°01'4 8.2
2017-Nov-15 19:30N 70°03' E 020°49'5 9.9
2017-Nov-15 19:00N 70°01' E 020°35'5 9.8
2017-Nov-15 18:30N 70°02' E 020°21'5 9.4
2017-Nov-15 18:00N 70°02' E 020°07'5 9.5
2017-Nov-15 17:30N 70°02' E 019°53'5 9.1
2017-Nov-15 17:00N 69°59' E 019°42'2 4.4
2017-Nov-15 16:30N 69°58' E 019°37'0 0.0
2017-Nov-15 16:00N 69°58' E 019°37'0 0.0
2017-Nov-15 15:30N 69°58' E 019°37'3 6.6
2017-Nov-15 15:00N 69°55' E 019°31'510.2
2017-Nov-15 14:29N 69°51' E 019°24'5 9.9
2017-Nov-15 13:59N 69°47' E 019°14'510.0
2017-Nov-15 13:30N 69°43' E 019°05'5 9.6
2017-Nov-15 12:59N 69°39' E 018°58'0 0.9
2017-Nov-15 12:30N 69°39' E 018°57'0 0.0
2017-Nov-15 11:59N 69°39' E 018°57'0 0.0
2017-Nov-15 11:29N 69°39' E 018°57'0 0.0
2017-Nov-15 11:00N 69°39' E 018°57'0 0.0
2017-Nov-15 10:30N 69°39' E 018°57'0 0.0
2017-Nov-15 10:00N 69°39' E 018°57'0 0.0
2017-Nov-15 09:30N 69°39' E 018°57'0 0.0
2017-Nov-15 09:00N 69°39' E 018°57'0 0.0
2017-Nov-15 08:30N 69°39' E 018°57'0 0.0
2017-Nov-15 08:00N 69°39' E 018°57'0 0.0
2017-Nov-15 07:29N 69°39' E 018°57'0 0.0
2017-Nov-15 06:59N 69°39' E 018°57'0 0.0
2017-Nov-15 06:30N 69°39' E 018°57'0 0.0
2017-Nov-15 06:01N 69°39' E 018°57'0 0.0
2017-Nov-15 05:30N 69°39' E 018°57'0 0.0
2017-Nov-15 05:00N 69°39' E 018°57'0 0.0
2017-Nov-15 04:29N 69°39' E 018°57'0 0.0
2017-Nov-15 04:00N 69°39' E 018°57'0 0.0
2017-Nov-15 03:30N 69°39' E 018°57'0 0.0
2017-Nov-15 03:00N 69°39' E 018°57'0 0.0
2017-Nov-15 02:30N 69°39' E 018°57'0 0.0
2017-Nov-15 02:00N 69°39' E 018°57'0 0.0
2017-Nov-15 01:30N 69°39' E 018°57'0 0.0
2017-Nov-15 01:00N 69°39' E 018°57'0 0.0
2017-Nov-15 00:30N 69°39' E 018°57'0 0.0
2017-Nov-15 00:00N 69°39' E 018°57'0 0.0
2017-Nov-14 23:30N 69°39' E 018°57'0 0.0
2017-Nov-14 22:59N 69°39' E 018°57'0 0.0
2017-Nov-14 22:30N 69°39' E 018°57'0 0.0
2017-Nov-14 22:00N 69°39' E 018°57'0 0.0
2017-Nov-14 21:30N 69°39' E 018°57'0 0.0
2017-Nov-14 21:00N 69°39' E 018°57'0 0.0
2017-Nov-14 20:30N 69°39' E 018°57'0 0.0
2017-Nov-14 19:59N 69°39' E 018°57'0 0.0
2017-Nov-14 19:30N 69°39' E 018°57'0 0.0
2017-Nov-14 19:00N 69°39' E 018°57'3 5.2
2017-Nov-14 18:30N 69°41' E 019°02'4 8.5
2017-Nov-14 18:00N 69°45' E 019°04'4 8.3
2017-Nov-14 17:30N 69°47' E 019°14'4 8.2
2017-Nov-14 17:00N 69°48' E 019°25'3 5.5
2017-Nov-14 16:30N 69°50' E 019°32'0 0.5
2017-Nov-14 15:59N 69°50' E 019°31'0 0.6
2017-Nov-14 15:30N 69°50' E 019°31'0 0.0
2017-Nov-14 15:00N 69°50' E 019°31'0 0.1
2017-Nov-14 14:30N 69°50' E 019°31'0 0.0
2017-Nov-14 14:01N 69°50' E 019°31'0 0.2
2017-Nov-14 13:30N 69°50' E 019°31'0 0.3
2017-Nov-14 13:00N 69°50' E 019°31'0 0.1
2017-Nov-14 12:30N 69°50' E 019°31'0 0.0
2017-Nov-14 11:59N 69°50' E 019°31'0 0.0
2017-Nov-14 11:30N 69°50' E 019°31'0 0.0
2017-Nov-14 10:59N 69°50' E 019°31'0 0.0
2017-Nov-14 10:30N 69°50' E 019°31'0 0.1
2017-Nov-14 10:00N 69°50' E 019°31'0 0.1
2017-Nov-14 09:30N 69°50' E 019°31'3 5.2
2017-Nov-14 09:00N 69°49' E 019°25'5 9.9
2017-Nov-14 08:30N 69°46' E 019°12'5 9.7
2017-Nov-14 07:59N 69°43' E 019°03'2 4.3
2017-Nov-14 07:30N 69°41' E 019°01'2 4.7
2017-Nov-14 07:00N 69°39' E 018°57'0 0.0
2017-Nov-14 06:29N 69°39' E 018°57'0 0.0
2017-Nov-14 05:58N 69°39' E 018°57'0 0.0
2017-Nov-14 05:27N 69°39' E 018°57'0 0.0
2017-Nov-14 04:53N 69°39' E 018°57'0 0.0
2017-Nov-14 04:28N 69°39' E 018°57'0 0.0
2017-Nov-14 04:00N 69°39' E 018°57'0 0.0
2017-Nov-14 03:26N 69°39' E 018°57'0 0.0
2017-Nov-14 03:00N 69°39' E 018°57'0 0.0
2017-Nov-14 02:30N 69°39' E 018°57'0 0.0
2017-Nov-14 01:59N 69°39' E 018°57'0 0.0
2017-Nov-14 01:28N 69°39' E 018°57'0 0.0
2017-Nov-14 00:55N 69°39' E 018°57'0 0.0
2017-Nov-14 00:29N 69°39' E 018°57'0 0.0
2017-Nov-13 23:58N 69°39' E 018°57'0 0.0
2017-Nov-13 23:26N 69°39' E 018°57'0 0.0
2017-Nov-13 23:00N 69°39' E 018°57'0 0.0
2017-Nov-13 22:30N 69°39' E 018°57'0 0.0
2017-Nov-13 21:58N 69°39' E 018°57'0 0.0
2017-Nov-13 01:56N 69°39' E 018°58'0 0.0
2017-Nov-13 01:26N 69°39' E 018°58'0 0.0
2017-Nov-13 00:59N 69°39' E 018°58'0 0.0
2017-Nov-13 00:29N 69°39' E 018°58'0 0.0
2017-Nov-12 23:58N 69°39' E 018°58'0 0.0
2017-Nov-12 23:26N 69°39' E 018°58'0 0.0
2017-Nov-12 22:59N 69°39' E 018°58'0 0.0
2017-Nov-12 22:29N 69°39' E 018°58'0 0.1
2017-Nov-12 21:57N 69°39' E 018°58'0 0.0
2017-Nov-12 21:29N 69°39' E 018°58'0 0.0
2017-Nov-12 20:59N 69°39' E 018°58'0 0.0
2017-Nov-12 20:30N 69°39' E 018°58'0 0.7
2017-Nov-12 20:00N 69°39' E 018°58'0 1.0
2017-Nov-12 19:30N 69°39' E 018°59'5 9.7
2017-Nov-12 19:00N 69°44' E 019°05'5 9.5
2017-Nov-12 18:30N 69°47' E 019°15'5 9.6
2017-Nov-12 17:59N 69°49' E 019°28'1 2.4
2017-Nov-12 17:26N 69°50' E 019°31'0 0.4
2017-Nov-12 16:58N 69°50' E 019°31'0 0.0
2017-Nov-12 16:28N 69°50' E 019°31'0 0.4
2017-Nov-12 15:58N 69°50' E 019°31'0 0.1
2017-Nov-12 15:28N 69°50' E 019°31'0 0.4
2017-Nov-12 15:00N 69°50' E 019°32'0 0.4
2017-Nov-12 14:28N 69°50' E 019°31'0 0.2
2017-Nov-12 13:58N 69°50' E 019°32'0 0.4
2017-Nov-12 13:28N 69°50' E 019°31'0 0.1
2017-Nov-12 13:00N 69°50' E 019°32'0 0.1
2017-Nov-12 12:29N 69°50' E 019°32'0 0.1
2017-Nov-12 12:00N 69°50' E 019°32'0 0.2
2017-Nov-12 11:30N 69°50' E 019°32'0 0.1
2017-Nov-12 10:59N 69°50' E 019°32'0 0.1
2017-Nov-12 10:30N 69°50' E 019°32'0 0.1
2017-Nov-12 09:58N 69°50' E 019°32'0 0.1
2017-Nov-12 09:24N 69°50' E 019°32'0 0.2
2017-Nov-12 08:54N 69°50' E 019°32'0 0.1
2017-Nov-12 08:29N 69°50' E 019°32'0 0.4
2017-Nov-12 07:59N 69°50' E 019°32'2 3.6
2017-Nov-12 07:30N 69°50' E 019°27'4 7.1
2017-Nov-12 07:00N 69°53' E 019°28'5 9.5
2017-Nov-12 06:30N 69°57' E 019°36'0 0.9
2017-Nov-12 05:58N 69°58' E 019°37'0 0.0
2017-Nov-12 05:29N 69°58' E 019°37'0 0.0
2017-Nov-12 04:59N 69°58' E 019°37'0 0.0
2017-Nov-12 04:29N 69°58' E 019°37'0 0.0
2017-Nov-12 04:00N 69°58' E 019°37'0 0.0
2017-Nov-12 03:30N 69°58' E 019°37'0 0.0
2017-Nov-12 03:01N 69°58' E 019°37'0 0.0
2017-Nov-12 02:30N 69°58' E 019°37'0 0.0
2017-Nov-12 01:59N 69°58' E 019°37'0 0.0
2017-Nov-12 01:29N 69°58' E 019°37'0 0.0
2017-Nov-12 00:55N 69°58' E 019°37'0 0.0
2017-Nov-12 00:28N 69°58' E 019°37'0 0.0
2017-Nov-11 23:58N 69°58' E 019°37'0 0.0
2017-Nov-11 23:25N 69°58' E 019°37'0 0.0
2017-Nov-11 22:59N 69°58' E 019°37'0 0.0
2017-Nov-11 22:30N 69°58' E 019°37'0 0.0
2017-Nov-11 22:00N 69°58' E 019°37'0 0.0
2017-Nov-11 21:30N 69°58' E 019°37'0 0.0
2017-Nov-11 20:59N 69°58' E 019°37'0 0.0
2017-Nov-11 20:28N 69°58' E 019°37'0 0.0
2017-Nov-11 19:58N 69°58' E 019°37'0 0.0
2017-Nov-11 19:28N 69°58' E 019°37'4 7.8
2017-Nov-11 19:00N 69°55' E 019°30'4 8.7
2017-Nov-11 18:30N 69°51' E 019°24'3 4.7
2017-Nov-11 17:58N 69°50' E 019°31'0 0.6
2017-Nov-11 17:29N 69°50' E 019°32'0 0.1
2017-Nov-11 16:59N 69°50' E 019°32'0 0.4
2017-Nov-11 16:29N 69°50' E 019°32'0 0.0
2017-Nov-11 15:59N 69°50' E 019°32'0 0.0
2017-Nov-11 15:29N 69°50' E 019°32'0 0.4
2017-Nov-11 14:59N 69°50' E 019°32'0 0.0
2017-Nov-11 14:28N 69°50' E 019°32'0 0.1
2017-Nov-11 13:59N 69°50' E 019°32'0 0.1
2017-Nov-11 13:28N 69°50' E 019°32'0 0.4
2017-Nov-11 13:00N 69°50' E 019°32'0 0.1
2017-Nov-11 12:29N 69°50' E 019°32'0 0.4
2017-Nov-11 12:00N 69°50' E 019°32'0 0.0
2017-Nov-11 11:30N 69°50' E 019°32'0 0.1
2017-Nov-11 10:54N 69°50' E 019°32'0 0.2
2017-Nov-11 10:30N 69°50' E 019°32'0 0.0
2017-Nov-11 09:57N 69°50' E 019°32'0 0.4
2017-Nov-11 09:28N 69°50' E 019°32'0 0.0
2017-Nov-11 08:59N 69°50' E 019°32'0 0.4
2017-Nov-11 08:30N 69°50' E 019°32'0 0.0
2017-Nov-11 07:56N 69°50' E 019°32'3 6.4
2017-Nov-11 07:29N 69°51' E 019°24'5 9.8
2017-Nov-11 07:00N 69°55' E 019°30'4 7.4
2017-Nov-11 06:30N 69°58' E 019°37'0 0.0
2017-Nov-11 05:58N 69°58' E 019°37'0 0.0
2017-Nov-11 05:27N 69°58' E 019°37'0 0.0
2017-Nov-11 05:00N 69°58' E 019°37'0 0.0
2017-Nov-11 04:30N 69°58' E 019°37'0 0.0
2017-Nov-11 03:53N 69°58' E 019°37'0 0.0
2017-Nov-11 03:29N 69°58' E 019°37'0 0.0
2017-Nov-11 02:59N 69°58' E 019°37'0 0.0
2017-Nov-11 02:28N 69°58' E 019°37'0 0.0
2017-Nov-11 01:58N 69°58' E 019°37'0 0.0
2017-Nov-11 01:28N 69°58' E 019°37'0 0.0
2017-Nov-11 00:54N 69°58' E 019°37'0 0.0
2017-Nov-11 00:30N 69°58' E 019°37'0 0.0
2017-Nov-10 23:59N 69°58' E 019°37'0 0.0
2017-Nov-10 23:27N 69°58' E 019°37'0 0.0
2017-Nov-10 22:54N 69°58' E 019°37'0 0.0
2017-Nov-10 22:30N 69°58' E 019°37'0 0.0
2017-Nov-10 21:59N 69°58' E 019°37'0 0.0
2017-Nov-10 21:25N 69°58' E 019°37'0 0.0
2017-Nov-10 20:58N 69°58' E 019°37'0 0.0
2017-Nov-10 20:30N 69°58' E 019°37'5 9.5
2017-Nov-10 19:59N 69°54' E 019°28'4 8.1
2017-Nov-10 19:30N 69°50' E 019°26'1 2.9
2017-Nov-10 19:00N 69°50' E 019°31'0 0.0
2017-Nov-10 18:30N 69°50' E 019°31'0 0.0
2017-Nov-10 18:00N 69°50' E 019°31'0 0.6
2017-Nov-10 17:30N 69°50' E 019°32'0 0.0
2017-Nov-10 17:00N 69°50' E 019°32'0 0.0
2017-Nov-10 16:29N 69°50' E 019°32'0 0.0
2017-Nov-10 16:00N 69°50' E 019°32'0 0.0
2017-Nov-10 15:30N 69°50' E 019°32'0 0.0
2017-Nov-10 15:00N 69°50' E 019°32'0 0.3
2017-Nov-10 14:29N 69°50' E 019°32'0 0.1
2017-Nov-10 14:00N 69°50' E 019°32'0 0.3
2017-Nov-10 13:29N 69°50' E 019°32'0 0.5
2017-Nov-10 13:00N 69°50' E 019°32'0 0.0
2017-Nov-10 12:30N 69°50' E 019°32'0 0.1
2017-Nov-10 12:00N 69°50' E 019°32'0 0.4
2017-Nov-10 11:30N 69°50' E 019°32'0 0.2
2017-Nov-10 11:00N 69°50' E 019°32'0 0.6
2017-Nov-10 10:30N 69°50' E 019°31'0 0.3
2017-Nov-10 10:00N 69°50' E 019°31'0 0.0
2017-Nov-10 09:30N 69°50' E 019°31'0 0.0
2017-Nov-10 09:00N 69°50' E 019°31'0 0.0
2017-Nov-10 08:30N 69°50' E 019°31'0 0.1
2017-Nov-10 08:00N 69°50' E 019°31'3 5.0
2017-Nov-10 07:30N 69°51' E 019°24'5 9.5
2017-Nov-10 07:00N 69°55' E 019°30'4 7.3
2017-Nov-10 06:30N 69°58' E 019°37'0 0.0
2017-Nov-10 06:00N 69°58' E 019°37'0 0.0
2017-Nov-10 05:30N 69°58' E 019°37'0 0.0
2017-Nov-10 05:00N 69°58' E 019°37'0 0.0
2017-Nov-10 04:30N 69°58' E 019°37'0 0.0
2017-Nov-10 04:00N 69°58' E 019°37'0 0.0
2017-Nov-10 03:30N 69°58' E 019°37'0 0.0
2017-Nov-10 03:00N 69°58' E 019°37'0 0.0
2017-Nov-10 02:30N 69°58' E 019°37'0 0.0
2017-Nov-10 02:00N 69°58' E 019°37'0 0.0
2017-Nov-10 01:30N 69°58' E 019°37'0 0.0
2017-Nov-10 01:00N 69°58' E 019°37'0 0.0
2017-Nov-10 00:30N 69°58' E 019°37'0 0.0
2017-Nov-10 00:00N 69°58' E 019°37'0 0.0
2017-Nov-09 23:30N 69°58' E 019°37'0 0.0
2017-Nov-09 23:00N 69°58' E 019°37'0 0.0
2017-Nov-09 22:30N 69°58' E 019°37'0 0.0
2017-Nov-09 22:00N 69°58' E 019°37'0 0.0
2017-Nov-09 21:30N 69°58' E 019°37'0 0.0
2017-Nov-09 21:00N 69°58' E 019°37'0 0.0
2017-Nov-09 20:30N 69°58' E 019°37'0 0.0
2017-Nov-09 19:59N 69°58' E 019°37'0 0.0
2017-Nov-09 19:30N 69°58' E 019°37'4 7.4
2017-Nov-09 19:00N 69°55' E 019°30'5 9.5
2017-Nov-09 18:30N 69°50' E 019°24'2 4.9
2017-Nov-09 18:00N 69°50' E 019°31'0 0.0
2017-Nov-09 17:30N 69°50' E 019°31'0 0.0
2017-Nov-09 17:00N 69°50' E 019°31'0 0.0
2017-Nov-09 16:30N 69°50' E 019°31'0 0.1
2017-Nov-09 16:00N 69°50' E 019°31'0 0.0
2017-Nov-09 15:30N 69°50' E 019°31'0 0.0
2017-Nov-09 15:00N 69°50' E 019°31'0 0.0
2017-Nov-09 14:30N 69°50' E 019°31'0 0.2
2017-Nov-09 14:00N 69°50' E 019°30'0 0.2
2017-Nov-09 13:30N 69°50' E 019°31'0 0.4
2017-Nov-09 13:00N 69°50' E 019°30'0 0.3
2017-Nov-09 12:30N 69°50' E 019°31'0 0.0
2017-Nov-09 12:00N 69°50' E 019°31'0 0.0
2017-Nov-09 11:29N 69°50' E 019°31'0 0.0
2017-Nov-09 11:00N 69°50' E 019°31'0 0.0
2017-Nov-09 10:30N 69°50' E 019°31'0 0.0
2017-Nov-09 10:00N 69°50' E 019°31'0 0.1
2017-Nov-09 09:29N 69°50' E 019°31'0 0.0
2017-Nov-09 08:59N 69°50' E 019°31'0 0.0
2017-Nov-09 08:30N 69°50' E 019°31'0 0.1
2017-Nov-09 08:00N 69°50' E 019°31'3 5.3
2017-Nov-09 07:30N 69°51' E 019°24'5 9.4
2017-Nov-09 07:00N 69°55' E 019°30'3 7.0
2017-Nov-09 06:31N 69°58' E 019°37'0 0.0
2017-Nov-09 05:59N 69°58' E 019°37'0 0.0
2017-Nov-09 05:30N 69°58' E 019°37'0 0.0
2017-Nov-09 05:00N 69°58' E 019°37'0 0.0
2017-Nov-09 04:30N 69°58' E 019°37'0 0.0
2017-Nov-09 04:00N 69°58' E 019°37'0 0.0
2017-Nov-09 03:29N 69°58' E 019°37'0 0.0
2017-Nov-09 03:00N 69°58' E 019°37'0 0.0
2017-Nov-09 02:30N 69°58' E 019°37'0 0.0
2017-Nov-09 02:00N 69°58' E 019°37'0 0.0
2017-Nov-09 01:29N 69°58' E 019°37'0 0.0
2017-Nov-09 00:59N 69°58' E 019°37'0 0.0
2017-Nov-09 00:30N 69°58' E 019°37'0 0.0
2017-Nov-09 00:00N 69°58' E 019°37'0 0.0
2017-Nov-08 23:30N 69°58' E 019°37'0 0.0
2017-Nov-08 22:59N 69°58' E 019°37'0 0.0
2017-Nov-08 22:30N 69°58' E 019°37'0 0.0
2017-Nov-08 22:00N 69°58' E 019°37'0 0.0
2017-Nov-08 21:30N 69°58' E 019°37'0 0.0
2017-Nov-08 21:00N 69°58' E 019°37'0 0.0
2017-Nov-08 20:30N 69°58' E 019°37'0 0.0
2017-Nov-08 20:00N 69°58' E 019°37'0 0.0
2017-Nov-08 19:30N 69°58' E 019°37'0 0.0
2017-Nov-08 18:59N 69°58' E 019°37'0 0.0
2017-Nov-08 18:30N 69°58' E 019°37'0 0.0
2017-Nov-08 18:00N 69°58' E 019°37'0 0.0
2017-Nov-08 17:30N 69°58' E 019°37'0 0.0
2017-Nov-08 17:00N 69°58' E 019°37'0 0.0
2017-Nov-08 16:30N 69°58' E 019°37'0 0.0
2017-Nov-08 16:00N 69°58' E 019°37'4 8.1
2017-Nov-08 15:29N 69°54' E 019°30'5 9.0
2017-Nov-08 14:59N 69°50' E 019°23'4 8.4
2017-Nov-08 14:30N 69°47' E 019°16'6 8.8
2017-Nov-08 13:47N 69°43' E 019°04'3 9.0
2017-Nov-08 13:30N 69°40' E 019°01'1 1.2
2017-Nov-08 12:37N 69°40' E 018°58'0 0.1
2017-Nov-08 12:30N 69°40' E 018°58'1 1.3
2017-Nov-08 11:49N 69°39' E 018°57'0 0.0
2017-Nov-08 09:04N 69°39' E 018°57'0 0.0
2017-Nov-08 08:59N 69°39' E 018°57'0 0.0
2017-Nov-08 08:30N 69°39' E 018°57'0 0.0
2017-Nov-08 08:00N 69°39' E 018°57'0 0.0
2017-Nov-08 07:30N 69°39' E 018°57'0 0.0
2017-Nov-08 07:00N 69°39' E 018°57'0 0.0
2017-Nov-08 06:29N 69°39' E 018°57'0 0.0
2017-Nov-08 05:59N 69°39' E 018°57'0 0.0
2017-Nov-08 05:30N 69°39' E 018°57'0 0.0
2017-Nov-08 05:00N 69°39' E 018°57'0 0.0
2017-Nov-08 04:30N 69°39' E 018°57'0 0.0
2017-Nov-08 04:00N 69°39' E 018°57'0 0.0
2017-Nov-08 03:30N 69°39' E 018°57'0 0.0
2017-Nov-08 03:00N 69°39' E 018°57'0 0.0
2017-Nov-08 02:30N 69°39' E 018°57'0 0.0
2017-Nov-08 02:00N 69°39' E 018°57'0 0.0
2017-Nov-08 01:30N 69°39' E 018°57'0 0.0
2017-Nov-08 01:00N 69°39' E 018°57'0 0.0
2017-Nov-08 00:27N 69°39' E 018°57'0 0.0
2017-Nov-08 00:00N 69°39' E 018°57'0 0.0
2017-Nov-07 22:40N 69°39' E 018°57'0 0.0
2017-Nov-07 22:30N 69°39' E 018°57'0 0.0
2017-Nov-07 22:00N 69°39' E 018°57'0 0.0
2017-Nov-07 21:29N 69°39' E 018°57'0 0.0
2017-Nov-07 21:00N 69°39' E 018°57'0 0.0
2017-Nov-07 20:30N 69°39' E 018°57'0 0.0
2017-Nov-07 19:59N 69°39' E 018°57'1 1.0
2017-Nov-07 19:30N 69°39' E 018°59'4 8.4
2017-Nov-07 18:59N 69°43' E 019°02'4 8.9
2017-Nov-07 18:30N 69°47' E 019°09'5 9.8
2017-Nov-07 18:00N 69°48' E 019°23'3 6.4
2017-Nov-07 17:30N 69°50' E 019°31'0 0.0
2017-Nov-07 17:01N 69°50' E 019°31'0 0.0
2017-Nov-07 16:30N 69°50' E 019°31'0 0.1
2017-Nov-07 16:00N 69°50' E 019°31'0 0.1
2017-Nov-07 15:31N 69°50' E 019°31'0 0.0
2017-Nov-07 15:00N 69°50' E 019°31'0 0.1
2017-Nov-07 14:30N 69°50' E 019°31'0 0.0
2017-Nov-07 14:00N 69°50' E 019°31'0 0.1
2017-Nov-07 13:30N 69°50' E 019°31'0 0.0
2017-Nov-07 13:01N 69°50' E 019°31'0 0.0
2017-Nov-07 12:30N 69°50' E 019°31'0 0.0
2017-Nov-07 12:00N 69°50' E 019°31'0 0.1
2017-Nov-07 11:30N 69°50' E 019°32'0 0.3
2017-Nov-07 10:59N 69°50' E 019°32'0 0.2
2017-Nov-07 10:30N 69°50' E 019°32'0 0.4
2017-Nov-07 10:00N 69°50' E 019°31'0 0.2
2017-Nov-07 09:30N 69°50' E 019°32'0 0.1
2017-Nov-07 09:00N 69°50' E 019°32'0 0.2
2017-Nov-07 08:30N 69°50' E 019°32'0 0.2
2017-Nov-07 08:00N 69°50' E 019°32'0 0.0
2017-Nov-07 07:30N 69°50' E 019°32'3 5.1
2017-Nov-07 07:00N 69°50' E 019°25'4 8.4
2017-Nov-07 06:31N 69°54' E 019°29'5 8.9
2017-Nov-07 05:59N 69°58' E 019°37'0 0.2
2017-Nov-07 05:30N 69°58' E 019°37'0 0.0
2017-Nov-07 05:00N 69°58' E 019°37'0 0.0
2017-Nov-07 04:30N 69°58' E 019°37'0 0.0
2017-Nov-07 04:00N 69°58' E 019°37'0 0.0
2017-Nov-07 03:30N 69°58' E 019°37'0 0.0
2017-Nov-07 03:00N 69°58' E 019°37'0 0.0
2017-Nov-07 02:30N 69°58' E 019°37'0 0.0
2017-Nov-07 02:00N 69°58' E 019°37'0 0.0
2017-Nov-07 01:30N 69°58' E 019°37'0 0.0
2017-Nov-07 01:00N 69°58' E 019°37'0 0.0
2017-Nov-07 00:30N 69°58' E 019°37'0 0.0
2017-Nov-07 00:00N 69°58' E 019°37'0 0.0
2017-Nov-06 23:30N 69°58' E 019°37'0 0.0
2017-Nov-06 23:00N 69°58' E 019°37'0 0.0
2017-Nov-06 22:30N 69°58' E 019°37'0 0.0
2017-Nov-06 22:00N 69°58' E 019°37'0 0.0
2017-Nov-06 21:30N 69°58' E 019°37'0 0.0
2017-Nov-06 21:00N 69°58' E 019°37'0 0.0
2017-Nov-06 20:30N 69°58' E 019°37'  
Track history (hours):
 
Tides and Currents Weather Stations Pressure Air Temp Water Temp Dewpoint Dewpoint Depression Visibility Wind Speed Wind Dir Waves Ship Positions

Fox Challenger

Last reported at 2017-Nov-16 09:05 UTC. Time now 2017-Dec-18 11:06 UTC.
Position N 70°02' E 020°59'.
Warning: this ship's position is 32 days out of date.

Length 30 m; draft 3.1 m.

Type: Towing. MMSI: 257785500.

Date/timePositionNaut miles runAvg speedWind from/ knotsBaromVisibWave heightAir tempDewpointWater temp
2017-Nov-16 09:05N 70°02' E 020°59'0 0.0
2017-Nov-16 08:59N 70°02' E 020°59'0 0.0
2017-Nov-16 08:30N 70°02' E 020°59'0 0.0
2017-Nov-16 07:59N 70°02' E 020°59'0 0.0
2017-Nov-16 07:29N 70°02' E 020°59'0 0.0
2017-Nov-16 07:00N 70°02' E 020°59'0 0.0
2017-Nov-16 06:30N 70°02' E 020°59'0 0.0
2017-Nov-16 05:59N 70°02' E 020°59'0 0.0
2017-Nov-16 05:30N 70°02' E 020°59'0 0.0
2017-Nov-16 05:00N 70°02' E 020°59'0 0.0
2017-Nov-16 04:29N 70°02' E 020°59'0 0.0
2017-Nov-16 03:59N 70°02' E 020°59'0 0.0
2017-Nov-16 03:30N 70°02' E 020°59'0 0.0
2017-Nov-16 03:00N 70°02' E 020°59'0 0.0
2017-Nov-16 02:29N 70°02' E 020°59'0 0.0
2017-Nov-16 02:00N 70°02' E 020°59'0 0.0
2017-Nov-16 01:30N 70°02' E 020°59'0 0.0
2017-Nov-16 00:59N 70°02' E 020°59'0 0.0
2017-Nov-16 00:30N 70°02' E 020°59'0 0.0
2017-Nov-16 00:00N 70°02' E 020°59'0 0.0
2017-Nov-15 23:30N 70°02' E 020°59'0 0.0
2017-Nov-15 22:59N 70°02' E 020°59'0 0.0
2017-Nov-15 22:30N 70°02' E 020°59'0 0.0
2017-Nov-15 21:59N 70°02' E 020°59'0 0.0
2017-Nov-15 21:29N 70°02' E 020°59'0 0.0
2017-Nov-15 21:00N 70°02' E 020°59'0 0.0
2017-Nov-15 20:29N 70°02' E 020°59'1 2.8
2017-Nov-15 20:00N 70°03' E 021°01'4 8.2
2017-Nov-15 19:30N 70°03' E 020°49'5 9.9
2017-Nov-15 19:00N 70°01' E 020°35'5 9.8
2017-Nov-15 18:30N 70°02' E 020°21'5 9.4
2017-Nov-15 18:00N 70°02' E 020°07'5 9.5
2017-Nov-15 17:30N 70°02' E 019°53'5 9.1
2017-Nov-15 17:00N 69°59' E 019°42'2 4.4
2017-Nov-15 16:30N 69°58' E 019°37'0 0.0
2017-Nov-15 16:00N 69°58' E 019°37'0 0.0
2017-Nov-15 15:30N 69°58' E 019°37'3 6.6
2017-Nov-15 15:00N 69°55' E 019°31'510.2
2017-Nov-15 14:29N 69°51' E 019°24'5 9.9
2017-Nov-15 13:59N 69°47' E 019°14'510.0
2017-Nov-15 13:30N 69°43' E 019°05'5 9.6
2017-Nov-15 12:59N 69°39' E 018°58'0 0.9
2017-Nov-15 12:30N 69°39' E 018°57'0 0.0
2017-Nov-15 11:59N 69°39' E 018°57'0 0.0
2017-Nov-15 11:29N 69°39' E 018°57'0 0.0
2017-Nov-15 11:00N 69°39' E 018°57'0 0.0
2017-Nov-15 10:30N 69°39' E 018°57'0 0.0
2017-Nov-15 10:00N 69°39' E 018°57'0 0.0
2017-Nov-15 09:30N 69°39' E 018°57'0 0.0
2017-Nov-15 09:00N 69°39' E 018°57'0 0.0
2017-Nov-15 08:30N 69°39' E 018°57'0 0.0
2017-Nov-15 08:00N 69°39' E 018°57'0 0.0
2017-Nov-15 07:29N 69°39' E 018°57'0 0.0
2017-Nov-15 06:59N 69°39' E 018°57'0 0.0
2017-Nov-15 06:30N 69°39' E 018°57'0 0.0
2017-Nov-15 06:01N 69°39' E 018°57'0 0.0
2017-Nov-15 05:30N 69°39' E 018°57'0 0.0
2017-Nov-15 05:00N 69°39' E 018°57'0 0.0
2017-Nov-15 04:29N 69°39' E 018°57'0 0.0
2017-Nov-15 04:00N 69°39' E 018°57'0 0.0
2017-Nov-15 03:30N 69°39' E 018°57'0 0.0
2017-Nov-15 03:00N 69°39' E 018°57'0 0.0
2017-Nov-15 02:30N 69°39' E 018°57'0 0.0
2017-Nov-15 02:00N 69°39' E 018°57'0 0.0
2017-Nov-15 01:30N 69°39' E 018°57'0 0.0
2017-Nov-15 01:00N 69°39' E 018°57'0 0.0
2017-Nov-15 00:30N 69°39' E 018°57'0 0.0
2017-Nov-15 00:00N 69°39' E 018°57'0 0.0
2017-Nov-14 23:30N 69°39' E 018°57'0 0.0
2017-Nov-14 22:59N 69°39' E 018°57'0 0.0
2017-Nov-14 22:30N 69°39' E 018°57'0 0.0
2017-Nov-14 22:00N 69°39' E 018°57'0 0.0
2017-Nov-14 21:30N 69°39' E 018°57'0 0.0
2017-Nov-14 21:00N 69°39' E 018°57'0 0.0
2017-Nov-14 20:30N 69°39' E 018°57'0 0.0
2017-Nov-14 19:59N 69°39' E 018°57'0 0.0
2017-Nov-14 19:30N 69°39' E 018°57'0 0.0
2017-Nov-14 19:00N 69°39' E 018°57'3 5.2
2017-Nov-14 18:30N 69°41' E 019°02'4 8.5
2017-Nov-14 18:00N 69°45' E 019°04'4 8.3
2017-Nov-14 17:30N 69°47' E 019°14'4 8.2
2017-Nov-14 17:00N 69°48' E 019°25'3 5.5
2017-Nov-14 16:30N 69°50' E 019°32'0 0.5
2017-Nov-14 15:59N 69°50' E 019°31'0 0.6
2017-Nov-14 15:30N 69°50' E 019°31'0 0.0
2017-Nov-14 15:00N 69°50' E 019°31'0 0.1
2017-Nov-14 14:30N 69°50' E 019°31'0 0.0
2017-Nov-14 14:01N 69°50' E 019°31'0 0.2
2017-Nov-14 13:30N 69°50' E 019°31'0 0.3
2017-Nov-14 13:00N 69°50' E 019°31'0 0.1
2017-Nov-14 12:30N 69°50' E 019°31'0 0.0
2017-Nov-14 11:59N 69°50' E 019°31'0 0.0
2017-Nov-14 11:30N 69°50' E 019°31'0 0.0
2017-Nov-14 10:59N 69°50' E 019°31'0 0.0
2017-Nov-14 10:30N 69°50' E 019°31'0 0.1
2017-Nov-14 10:00N 69°50' E 019°31'0 0.1
2017-Nov-14 09:30N 69°50' E 019°31'3 5.2
2017-Nov-14 09:00N 69°49' E 019°25'5 9.9
2017-Nov-14 08:30N 69°46' E 019°12'5 9.7
2017-Nov-14 07:59N 69°43' E 019°03'2 4.3
2017-Nov-14 07:30N 69°41' E 019°01'2 4.7
2017-Nov-14 07:00N 69°39' E 018°57'0 0.0
2017-Nov-14 06:29N 69°39' E 018°57'0 0.0
2017-Nov-14 05:58N 69°39' E 018°57'0 0.0
2017-Nov-14 05:27N 69°39' E 018°57'0 0.0
2017-Nov-14 04:53N 69°39' E 018°57'0 0.0
2017-Nov-14 04:28N 69°39' E 018°57'0 0.0
2017-Nov-14 04:00N 69°39' E 018°57'0 0.0
2017-Nov-14 03:26N 69°39' E 018°57'0 0.0
2017-Nov-14 03:00N 69°39' E 018°57'0 0.0
2017-Nov-14 02:30N 69°39' E 018°57'0 0.0
2017-Nov-14 01:59N 69°39' E 018°57'0 0.0
2017-Nov-14 01:28N 69°39' E 018°57'0 0.0
2017-Nov-14 00:55N 69°39' E 018°57'0 0.0
2017-Nov-14 00:29N 69°39' E 018°57'0 0.0
2017-Nov-13 23:58N 69°39' E 018°57'0 0.0
2017-Nov-13 23:26N 69°39' E 018°57'0 0.0
2017-Nov-13 23:00N 69°39' E 018°57'0 0.0
2017-Nov-13 22:30N 69°39' E 018°57'0 0.0
2017-Nov-13 21:58N 69°39' E 018°57'0 0.0
2017-Nov-13 01:56N 69°39' E 018°58'0 0.0
2017-Nov-13 01:26N 69°39' E 018°58'0 0.0
2017-Nov-13 00:59N 69°39' E 018°58'0 0.0
2017-Nov-13 00:29N 69°39' E 018°58'0 0.0
2017-Nov-12 23:58N 69°39' E 018°58'0 0.0
2017-Nov-12 23:26N 69°39' E 018°58'0 0.0
2017-Nov-12 22:59N 69°39' E 018°58'0 0.0
2017-Nov-12 22:29N 69°39' E 018°58'0 0.1
2017-Nov-12 21:57N 69°39' E 018°58'0 0.0
2017-Nov-12 21:29N 69°39' E 018°58'0 0.0
2017-Nov-12 20:59N 69°39' E 018°58'0 0.0
2017-Nov-12 20:30N 69°39' E 018°58'0 0.7
2017-Nov-12 20:00N 69°39' E 018°58'0 1.0
2017-Nov-12 19:30N 69°39' E 018°59'5 9.7
2017-Nov-12 19:00N 69°44' E 019°05'5 9.5
2017-Nov-12 18:30N 69°47' E 019°15'5 9.6
2017-Nov-12 17:59N 69°49' E 019°28'1 2.4
2017-Nov-12 17:26N 69°50' E 019°31'0 0.4
2017-Nov-12 16:58N 69°50' E 019°31'0 0.0
2017-Nov-12 16:28N 69°50' E 019°31'0 0.4
2017-Nov-12 15:58N 69°50' E 019°31'0 0.1
2017-Nov-12 15:28N 69°50' E 019°31'0 0.4
2017-Nov-12 15:00N 69°50' E 019°32'0 0.4
2017-Nov-12 14:28N 69°50' E 019°31'0 0.2
2017-Nov-12 13:58N 69°50' E 019°32'0 0.4
2017-Nov-12 13:28N 69°50' E 019°31'0 0.1
2017-Nov-12 13:00N 69°50' E 019°32'0 0.1
2017-Nov-12 12:29N 69°50' E 019°32'0 0.1
2017-Nov-12 12:00N 69°50' E 019°32'0 0.2
2017-Nov-12 11:30N 69°50' E 019°32'0 0.1
2017-Nov-12 10:59N 69°50' E 019°32'0 0.1
2017-Nov-12 10:30N 69°50' E 019°32'0 0.1
2017-Nov-12 09:58N 69°50' E 019°32'0 0.1
2017-Nov-12 09:24N 69°50' E 019°32'0 0.2
2017-Nov-12 08:54N 69°50' E 019°32'0 0.1
2017-Nov-12 08:29N 69°50' E 019°32'0 0.4
2017-Nov-12 07:59N 69°50' E 019°32'2 3.6
2017-Nov-12 07:30N 69°50' E 019°27'4 7.1
2017-Nov-12 07:00N 69°53' E 019°28'5 9.5
2017-Nov-12 06:30N 69°57' E 019°36'0 0.9
2017-Nov-12 05:58N 69°58' E 019°37'0 0.0
2017-Nov-12 05:29N 69°58' E 019°37'0 0.0
2017-Nov-12 04:59N 69°58' E 019°37'0 0.0
2017-Nov-12 04:29N 69°58' E 019°37'0 0.0
2017-Nov-12 04:00N 69°58' E 019°37'0 0.0
2017-Nov-12 03:30N 69°58' E 019°37'0 0.0
2017-Nov-12 03:01N 69°58' E 019°37'0 0.0
2017-Nov-12 02:30N 69°58' E 019°37'0 0.0
2017-Nov-12 01:59N 69°58' E 019°37'0 0.0
2017-Nov-12 01:29N 69°58' E 019°37'0 0.0
2017-Nov-12 00:55N 69°58' E 019°37'0 0.0
2017-Nov-12 00:28N 69°58' E 019°37'0 0.0
2017-Nov-11 23:58N 69°58' E 019°37'0 0.0
2017-Nov-11 23:25N 69°58' E 019°37'0 0.0
2017-Nov-11 22:59N 69°58' E 019°37'0 0.0
2017-Nov-11 22:30N 69°58' E 019°37'0 0.0
2017-Nov-11 22:00N 69°58' E 019°37'0 0.0
2017-Nov-11 21:30N 69°58' E 019°37'0 0.0
2017-Nov-11 20:59N 69°58' E 019°37'0 0.0
2017-Nov-11 20:28N 69°58' E 019°37'0 0.0
2017-Nov-11 19:58N 69°58' E 019°37'0 0.0
2017-Nov-11 19:28N 69°58' E 019°37'4 7.8
2017-Nov-11 19:00N 69°55' E 019°30'4 8.7
2017-Nov-11 18:30N 69°51' E 019°24'3 4.7
2017-Nov-11 17:58N 69°50' E 019°31'0 0.6
2017-Nov-11 17:29N 69°50' E 019°32'0 0.1
2017-Nov-11 16:59N 69°50' E 019°32'0 0.4
2017-Nov-11 16:29N 69°50' E 019°32'0 0.0
2017-Nov-11 15:59N 69°50' E 019°32'0 0.0
2017-Nov-11 15:29N 69°50' E 019°32'0 0.4
2017-Nov-11 14:59N 69°50' E 019°32'0 0.0
2017-Nov-11 14:28N 69°50' E 019°32'0 0.1
2017-Nov-11 13:59N 69°50' E 019°32'0 0.1
2017-Nov-11 13:28N 69°50' E 019°32'0 0.4
2017-Nov-11 13:00N 69°50' E 019°32'0 0.1
2017-Nov-11 12:29N 69°50' E 019°32'0 0.4
2017-Nov-11 12:00N 69°50' E 019°32'0 0.0
2017-Nov-11 11:30N 69°50' E 019°32'0 0.1
2017-Nov-11 10:54N 69°50' E 019°32'0 0.2
2017-Nov-11 10:30N 69°50' E 019°32'0 0.0
2017-Nov-11 09:57N 69°50' E 019°32'0 0.4
2017-Nov-11 09:28N 69°50' E 019°32'0 0.0
2017-Nov-11 08:59N 69°50' E 019°32'0 0.4
2017-Nov-11 08:30N 69°50' E 019°32'0 0.0
2017-Nov-11 07:56N 69°50' E 019°32'3 6.4
2017-Nov-11 07:29N 69°51' E 019°24'5 9.8
2017-Nov-11 07:00N 69°55' E 019°30'4 7.4
2017-Nov-11 06:30N 69°58' E 019°37'0 0.0
2017-Nov-11 05:58N 69°58' E 019°37'0 0.0
2017-Nov-11 05:27N 69°58' E 019°37'0 0.0
2017-Nov-11 05:00N 69°58' E 019°37'0 0.0
2017-Nov-11 04:30N 69°58' E 019°37'0 0.0
2017-Nov-11 03:53N 69°58' E 019°37'0 0.0
2017-Nov-11 03:29N 69°58' E 019°37'0 0.0
2017-Nov-11 02:59N 69°58' E 019°37'0 0.0
2017-Nov-11 02:28N 69°58' E 019°37'0 0.0
2017-Nov-11 01:58N 69°58' E 019°37'0 0.0
2017-Nov-11 01:28N 69°58' E 019°37'0 0.0
2017-Nov-11 00:54N 69°58' E 019°37'0 0.0
2017-Nov-11 00:30N 69°58' E 019°37'0 0.0
2017-Nov-10 23:59N 69°58' E 019°37'0 0.0
2017-Nov-10 23:27N 69°58' E 019°37'0 0.0
2017-Nov-10 22:54N 69°58' E 019°37'0 0.0
2017-Nov-10 22:30N 69°58' E 019°37'0 0.0
2017-Nov-10 21:59N 69°58' E 019°37'0 0.0
2017-Nov-10 21:25N 69°58' E 019°37'0 0.0
2017-Nov-10 20:58N 69°58' E 019°37'0 0.0
2017-Nov-10 20:30N 69°58' E 019°37'5 9.5
2017-Nov-10 19:59N 69°54' E 019°28'4 8.1
2017-Nov-10 19:30N 69°50' E 019°26'1 2.9
2017-Nov-10 19:00N 69°50' E 019°31'0 0.0
2017-Nov-10 18:30N 69°50' E 019°31'0 0.0
2017-Nov-10 18:00N 69°50' E 019°31'0 0.6
2017-Nov-10 17:30N 69°50' E 019°32'0 0.0
2017-Nov-10 17:00N 69°50' E 019°32'0 0.0
2017-Nov-10 16:29N 69°50' E 019°32'0 0.0
2017-Nov-10 16:00N 69°50' E 019°32'0 0.0
2017-Nov-10 15:30N 69°50' E 019°32'0 0.0
2017-Nov-10 15:00N 69°50' E 019°32'0 0.3
2017-Nov-10 14:29N 69°50' E 019°32'0 0.1
2017-Nov-10 14:00N 69°50' E 019°32'0 0.3
2017-Nov-10 13:29N 69°50' E 019°32'0 0.5
2017-Nov-10 13:00N 69°50' E 019°32'0 0.0
2017-Nov-10 12:30N 69°50' E 019°32'0 0.1
2017-Nov-10 12:00N 69°50' E 019°32'0 0.4
2017-Nov-10 11:30N 69°50' E 019°32'0 0.2
2017-Nov-10 11:00N 69°50' E 019°32'0 0.6
2017-Nov-10 10:30N 69°50' E 019°31'0 0.3
2017-Nov-10 10:00N 69°50' E 019°31'0 0.0
2017-Nov-10 09:30N 69°50' E 019°31'0 0.0
2017-Nov-10 09:00N 69°50' E 019°31'0 0.0
2017-Nov-10 08:30N 69°50' E 019°31'0 0.1
2017-Nov-10 08:00N 69°50' E 019°31'3 5.0
2017-Nov-10 07:30N 69°51' E 019°24'5 9.5
2017-Nov-10 07:00N 69°55' E 019°30'4 7.3
2017-Nov-10 06:30N 69°58' E 019°37'0 0.0
2017-Nov-10 06:00N 69°58' E 019°37'0 0.0
2017-Nov-10 05:30N 69°58' E 019°37'0 0.0
2017-Nov-10 05:00N 69°58' E 019°37'0 0.0
2017-Nov-10 04:30N 69°58' E 019°37'0 0.0
2017-Nov-10 04:00N 69°58' E 019°37'0 0.0
2017-Nov-10 03:30N 69°58' E 019°37'0 0.0
2017-Nov-10 03:00N 69°58' E 019°37'0 0.0
2017-Nov-10 02:30N 69°58' E 019°37'0 0.0
2017-Nov-10 02:00N 69°58' E 019°37'0 0.0
2017-Nov-10 01:30N 69°58' E 019°37'0 0.0
2017-Nov-10 01:00N 69°58' E 019°37'0 0.0
2017-Nov-10 00:30N 69°58' E 019°37'0 0.0
2017-Nov-10 00:00N 69°58' E 019°37'0 0.0
2017-Nov-09 23:30N 69°58' E 019°37'0 0.0
2017-Nov-09 23:00N 69°58' E 019°37'0 0.0
2017-Nov-09 22:30N 69°58' E 019°37'0 0.0
2017-Nov-09 22:00N 69°58' E 019°37'0 0.0
2017-Nov-09 21:30N 69°58' E 019°37'0 0.0
2017-Nov-09 21:00N 69°58' E 019°37'0 0.0
2017-Nov-09 20:30N 69°58' E 019°37'0 0.0
2017-Nov-09 19:59N 69°58' E 019°37'0 0.0
2017-Nov-09 19:30N 69°58' E 019°37'4 7.4
2017-Nov-09 19:00N 69°55' E 019°30'5 9.5
2017-Nov-09 18:30N 69°50' E 019°24'2 4.9
2017-Nov-09 18:00N 69°50' E 019°31'0 0.0
2017-Nov-09 17:30N 69°50' E 019°31'0 0.0
2017-Nov-09 17:00N 69°50' E 019°31'0 0.0
2017-Nov-09 16:30N 69°50' E 019°31'0 0.1
2017-Nov-09 16:00N 69°50' E 019°31'0 0.0
2017-Nov-09 15:30N 69°50' E 019°31'0 0.0
2017-Nov-09 15:00N 69°50' E 019°31'0 0.0
2017-Nov-09 14:30N 69°50' E 019°31'0 0.2
2017-Nov-09 14:00N 69°50' E 019°30'0 0.2
2017-Nov-09 13:30N 69°50' E 019°31'0 0.4
2017-Nov-09 13:00N 69°50' E 019°30'0 0.3
2017-Nov-09 12:30N 69°50' E 019°31'0 0.0
2017-Nov-09 12:00N 69°50' E 019°31'0 0.0
2017-Nov-09 11:29N 69°50' E 019°31'0 0.0
2017-Nov-09 11:00N 69°50' E 019°31'0 0.0
2017-Nov-09 10:30N 69°50' E 019°31'0 0.0
2017-Nov-09 10:00N 69°50' E 019°31'0 0.1
2017-Nov-09 09:29N 69°50' E 019°31'0 0.0
2017-Nov-09 08:59N 69°50' E 019°31'0 0.0
2017-Nov-09 08:30N 69°50' E 019°31'0 0.1
2017-Nov-09 08:00N 69°50' E 019°31'3 5.3
2017-Nov-09 07:30N 69°51' E 019°24'5 9.4
2017-Nov-09 07:00N 69°55' E 019°30'3 7.0
2017-Nov-09 06:31N 69°58' E 019°37'0 0.0
2017-Nov-09 05:59N 69°58' E 019°37'0 0.0
2017-Nov-09 05:30N 69°58' E 019°37'0 0.0
2017-Nov-09 05:00N 69°58' E 019°37'0 0.0
2017-Nov-09 04:30N 69°58' E 019°37'0 0.0
2017-Nov-09 04:00N 69°58' E 019°37'0 0.0
2017-Nov-09 03:29N 69°58' E 019°37'0 0.0
2017-Nov-09 03:00N 69°58' E 019°37'0 0.0
2017-Nov-09 02:30N 69°58' E 019°37'0 0.0
2017-Nov-09 02:00N 69°58' E 019°37'0 0.0
2017-Nov-09 01:29N 69°58' E 019°37'0 0.0
2017-Nov-09 00:59N 69°58' E 019°37'0 0.0
2017-Nov-09 00:30N 69°58' E 019°37'0 0.0
2017-Nov-09 00:00N 69°58' E 019°37'0 0.0
2017-Nov-08 23:30N 69°58' E 019°37'0 0.0
2017-Nov-08 22:59N 69°58' E 019°37'0 0.0
2017-Nov-08 22:30N 69°58' E 019°37'0 0.0
2017-Nov-08 22:00N 69°58' E 019°37'0 0.0
2017-Nov-08 21:30N 69°58' E 019°37'0 0.0
2017-Nov-08 21:00N 69°58' E 019°37'0 0.0
2017-Nov-08 20:30N 69°58' E 019°37'0 0.0
2017-Nov-08 20:00N 69°58' E 019°37'0 0.0
2017-Nov-08 19:30N 69°58' E 019°37'0 0.0
2017-Nov-08 18:59N 69°58' E 019°37'0 0.0
2017-Nov-08 18:30N 69°58' E 019°37'0 0.0
2017-Nov-08 18:00N 69°58' E 019°37'0 0.0
2017-Nov-08 17:30N 69°58' E 019°37'0 0.0
2017-Nov-08 17:00N 69°58' E 019°37'0 0.0
2017-Nov-08 16:30N 69°58' E 019°37'0 0.0
2017-Nov-08 16:00N 69°58' E 019°37'4 8.1
2017-Nov-08 15:29N 69°54' E 019°30'5 9.0
2017-Nov-08 14:59N 69°50' E 019°23'4 8.4
2017-Nov-08 14:30N 69°47' E 019°16'6 8.8
2017-Nov-08 13:47N 69°43' E 019°04'3 9.0
2017-Nov-08 13:30N 69°40' E 019°01'1 1.2
2017-Nov-08 12:37N 69°40' E 018°58'0 0.1
2017-Nov-08 12:30N 69°40' E 018°58'1 1.3
2017-Nov-08 11:49N 69°39' E 018°57'0 0.0
2017-Nov-08 09:04N 69°39' E 018°57'0 0.0
2017-Nov-08 08:59N 69°39' E 018°57'0 0.0
2017-Nov-08 08:30N 69°39' E 018°57'0 0.0
2017-Nov-08 08:00N 69°39' E 018°57'0 0.0
2017-Nov-08 07:30N 69°39' E 018°57'0 0.0
2017-Nov-08 07:00N 69°39' E 018°57'0 0.0
2017-Nov-08 06:29N 69°39' E 018°57'0 0.0
2017-Nov-08 05:59N 69°39' E 018°57'0 0.0
2017-Nov-08 05:30N 69°39' E 018°57'0 0.0
2017-Nov-08 05:00N 69°39' E 018°57'0 0.0
2017-Nov-08 04:30N 69°39' E 018°57'0 0.0
2017-Nov-08 04:00N 69°39' E 018°57'0 0.0
2017-Nov-08 03:30N 69°39' E 018°57'0 0.0
2017-Nov-08 03:00N 69°39' E 018°57'0 0.0
2017-Nov-08 02:30N 69°39' E 018°57'0 0.0
2017-Nov-08 02:00N 69°39' E 018°57'0 0.0
2017-Nov-08 01:30N 69°39' E 018°57'0 0.0
2017-Nov-08 01:00N 69°39' E 018°57'0 0.0
2017-Nov-08 00:27N 69°39' E 018°57'0 0.0
2017-Nov-08 00:00N 69°39' E 018°57'0 0.0
2017-Nov-07 22:40N 69°39' E 018°57'0 0.0
2017-Nov-07 22:30N 69°39' E 018°57'0 0.0
2017-Nov-07 22:00N 69°39' E 018°57'0 0.0
2017-Nov-07 21:29N 69°39' E 018°57'0 0.0
2017-Nov-07 21:00N 69°39' E 018°57'0 0.0
2017-Nov-07 20:30N 69°39' E 018°57'0 0.0
2017-Nov-07 19:59N 69°39' E 018°57'1 1.0
2017-Nov-07 19:30N 69°39' E 018°59'4 8.4
2017-Nov-07 18:59N 69°43' E 019°02'4 8.9
2017-Nov-07 18:30N 69°47' E 019°09'5 9.8
2017-Nov-07 18:00N 69°48' E 019°23'3 6.4
2017-Nov-07 17:30N 69°50' E 019°31'0 0.0
2017-Nov-07 17:01N 69°50' E 019°31'0 0.0
2017-Nov-07 16:30N 69°50' E 019°31'0 0.1
2017-Nov-07 16:00N 69°50' E 019°31'0 0.1
2017-Nov-07 15:31N 69°50' E 019°31'0 0.0
2017-Nov-07 15:00N 69°50' E 019°31'0 0.1
2017-Nov-07 14:30N 69°50' E 019°31'0 0.0
2017-Nov-07 14:00N 69°50' E 019°31'0 0.1
2017-Nov-07 13:30N 69°50' E 019°31'0 0.0
2017-Nov-07 13:01N 69°50' E 019°31'0 0.0
2017-Nov-07 12:30N 69°50' E 019°31'0 0.0
2017-Nov-07 12:00N 69°50' E 019°31'0 0.1
2017-Nov-07 11:30N 69°50' E 019°32'0 0.3
2017-Nov-07 10:59N 69°50' E 019°32'0 0.2
2017-Nov-07 10:30N 69°50' E 019°32'0 0.4
2017-Nov-07 10:00N 69°50' E 019°31'0 0.2
2017-Nov-07 09:30N 69°50' E 019°32'0 0.1
2017-Nov-07 09:00N 69°50' E 019°32'0 0.2
2017-Nov-07 08:30N 69°50' E 019°32'0 0.2
2017-Nov-07 08:00N 69°50' E 019°32'0 0.0
2017-Nov-07 07:30N 69°50' E 019°32'3 5.1
2017-Nov-07 07:00N 69°50' E 019°25'4 8.4
2017-Nov-07 06:31N 69°54' E 019°29'5 8.9
2017-Nov-07 05:59N 69°58' E 019°37'0 0.2
2017-Nov-07 05:30N 69°58' E 019°37'0 0.0
2017-Nov-07 05:00N 69°58' E 019°37'0 0.0
2017-Nov-07 04:30N 69°58' E 019°37'0 0.0
2017-Nov-07 04:00N 69°58' E 019°37'0 0.0
2017-Nov-07 03:30N 69°58' E 019°37'0 0.0
2017-Nov-07 03:00N 69°58' E 019°37'0 0.0
2017-Nov-07 02:30N 69°58' E 019°37'0 0.0
2017-Nov-07 02:00N 69°58' E 019°37'0 0.0
2017-Nov-07 01:30N 69°58' E 019°37'0 0.0
2017-Nov-07 01:00N 69°58' E 019°37'0 0.0
2017-Nov-07 00:30N 69°58' E 019°37'0 0.0
2017-Nov-07 00:00N 69°58' E 019°37'0 0.0
2017-Nov-06 23:30N 69°58' E 019°37'0 0.0
2017-Nov-06 23:00N 69°58' E 019°37'0 0.0
2017-Nov-06 22:30N 69°58' E 019°37'0 0.0
2017-Nov-06 22:00N 69°58' E 019°37'0 0.0
2017-Nov-06 21:30N 69°58' E 019°37'0 0.0
2017-Nov-06 21:00N 69°58' E 019°37'0 0.0
2017-Nov-06 20:30N 69°58' E 019°37'  

Dump ship's entire track history